This is the latest recevied weather packets stored in our database for station/object CE3UOB-10. If no packets are shown the sender has not sent any weather packets the latest 10 day(s).
| Time | Temp. | Humidity | Pressure | Rain* | Wind** | Luminosity | Snow |
|---|---|---|---|---|---|---|---|
| 1777653259 | 13.33° C | 79% | 999.9 hPa | - | - | - | - |
| 1777651466 | 13.33° C | 78% | 999.8 hPa | - | - | - | - |
| 1777651458 | 13.33° C | 78% | 999.8 hPa | - | - | - | - |
| 1777649666 | 12.22° C | 84% | 1000.2 hPa | - | - | - | - |
| 1777649657 | 12.22° C | 84% | 1000.2 hPa | - | - | - | - |
| 1777647866 | 12.22° C | 87% | 1000.3 hPa | - | - | - | - |
| 1777647860 | 12.22° C | 87% | 1000.3 hPa | - | - | - | - |
| 1777646066 | 11.11° C | 91% | 1000.2 hPa | - | - | - | - |
| 1777646060 | 11.11° C | 91% | 1000.2 hPa | - | - | - | - |
| 1777644266 | 11.11° C | 90% | 1000.3 hPa | - | - | - | - |
| 1777644259 | 11.11° C | 90% | 1000.3 hPa | - | - | - | - |
| 1777642575 | 10° C | 100% | 1000.1 hPa | - | - | - | - |
| 1777642459 | 10° C | 100% | 1000.1 hPa | - | - | - | - |
| 1777640666 | 10.56° C | 99% | 1000 hPa | - | - | - | - |
| 1777640659 | 10.56° C | 99% | 1000 hPa | - | - | - | - |
| 1777638865 | 9.44° C | 100% | 999.8 hPa | - | - | - | - |
| 1777638859 | 9.44° C | 100% | 999.8 hPa | - | - | - | - |
| 1777637066 | 12.22° C | 83% | 999.4 hPa | - | - | - | - |
| 1777637059 | 12.22° C | 83% | 999.4 hPa | - | - | - | - |
| 1777635266 | 10.56° C | 96% | 999.1 hPa | - | - | - | - |
| 1777635259 | 10.56° C | 96% | 999.1 hPa | - | - | - | - |
| 1777633465 | 10° C | 94% | 998.7 hPa | - | - | - | - |
| 1777633458 | 10° C | 94% | 998.7 hPa | - | - | - | - |
| 1777631665 | 10° C | 97% | 998.5 hPa | - | - | - | - |
| 1777631658 | 10° C | 97% | 998.5 hPa | - | - | - | - |
* Rain since midnight (hover to see other rain measurements)
** Current wind speed in m/s (hover to see current wind gust speed)